sensor_id;sensor_type;location;lat;lon;timestamp;temperature;humidity
65559;DHT22;52203;51.998;5.140;2023-03-20T00:01:54;3.62;118.99
65559;DHT22;52203;51.998;5.140;2023-03-20T00:04:20;3.64;118.99
65559;DHT22;52203;51.998;5.140;2023-03-20T00:06:47;3.63;118.99
65559;DHT22;52203;51.998;5.140;2023-03-20T00:09:12;3.69;118.99
65559;DHT22;52203;51.998;5.140;2023-03-20T00:11:49;3.63;118.99
65559;DHT22;52203;51.998;5.140;2023-03-20T00:14:17;3.62;118.99
65559;DHT22;52203;51.998;5.140;2023-03-20T00:16:45;3.58;118.99
65559;DHT22;52203;51.998;5.140;2023-03-20T00:19:23;3.57;118.99
65559;DHT22;52203;51.998;5.140;2023-03-20T00:21:51;3.61;118.99
65559;DHT22;52203;51.998;5.140;2023-03-20T00:24:17;3.59;118.99
65559;DHT22;52203;51.998;5.140;2023-03-20T00:26:44;3.58;118.99
65559;DHT22;52203;51.998;5.140;2023-03-20T00:31:46;3.59;118.99
65559;DHT22;52203;51.998;5.140;2023-03-20T00:34:14;3.56;118.99
65559;DHT22;52203;51.998;5.140;2023-03-20T00:36:40;3.57;118.99
65559;DHT22;52203;51.998;5.140;2023-03-20T00:39:06;3.57;118.99
65559;DHT22;52203;51.998;5.140;2023-03-20T00:44:32;3.57;118.99
65559;DHT22;52203;51.998;5.140;2023-03-20T00:47:24;3.58;118.99
65559;DHT22;52203;51.998;5.140;2023-03-20T00:49:52;3.64;118.99
65559;DHT22;52203;51.998;5.140;2023-03-20T00:52:20;3.64;118.99
65559;DHT22;52203;51.998;5.140;2023-03-20T00:54:46;3.63;118.99
65559;DHT22;52203;51.998;5.140;2023-03-20T00:57:29;3.63;118.99
65559;DHT22;52203;51.998;5.140;2023-03-20T01:00:05;3.65;118.99
65559;DHT22;52203;51.998;5.140;2023-03-20T01:02:32;3.56;118.99
65559;DHT22;52203;51.998;5.140;2023-03-20T01:05:00;3.58;118.99
65559;DHT22;52203;51.998;5.140;2023-03-20T01:07:28;3.52;118.99
65559;DHT22;52203;51.998;5.140;2023-03-20T01:09:53;3.50;118.99
65559;DHT22;52203;51.998;5.140;2023-03-20T01:12:19;3.48;118.99
65559;DHT22;52203;51.998;5.140;2023-03-20T01:14:54;3.49;118.99
65559;DHT22;52203;51.998;5.140;2023-03-20T01:17:21;3.48;118.99
65559;DHT22;52203;51.998;5.140;2023-03-20T01:19:47;3.45;118.99
65559;DHT22;52203;51.998;5.140;2023-03-20T01:22:13;3.41;118.99
65559;DHT22;52203;51.998;5.140;2023-03-20T01:24:39;3.38;118.99
65559;DHT22;52203;51.998;5.140;2023-03-20T01:27:13;3.28;118.99
65559;DHT22;52203;51.998;5.140;2023-03-20T01:29:40;3.27;118.99
65559;DHT22;52203;51.998;5.140;2023-03-20T01:32:17;3.23;118.99
65559;DHT22;52203;51.998;5.140;2023-03-20T01:34:43;3.19;118.99
65559;DHT22;52203;51.998;5.140;2023-03-20T01:37:12;3.18;118.99
65559;DHT22;52203;51.998;5.140;2023-03-20T01:39:38;3.14;118.99
65559;DHT22;52203;51.998;5.140;2023-03-20T01:42:05;3.08;118.99
65559;DHT22;52203;51.998;5.140;2023-03-20T01:44:33;2.99;118.99
65559;DHT22;52203;51.998;5.140;2023-03-20T01:47:01;2.89;118.99
65559;DHT22;52203;51.998;5.140;2023-03-20T01:51:53;2.73;118.99
65559;DHT22;52203;51.998;5.140;2023-03-20T01:54:29;2.67;118.99
65559;DHT22;52203;51.998;5.140;2023-03-20T01:57:01;2.62;118.99
65559;DHT22;52203;51.998;5.140;2023-03-20T02:01:59;2.54;118.99
65559;DHT22;52203;51.998;5.140;2023-03-20T02:04:29;2.50;118.99
65559;DHT22;52203;51.998;5.140;2023-03-20T02:06:57;2.51;118.99
65559;DHT22;52203;51.998;5.140;2023-03-20T02:09:22;2.53;118.99
65559;DHT22;52203;51.998;5.140;2023-03-20T02:11:48;2.54;118.99
65559;DHT22;52203;51.998;5.140;2023-03-20T02:14:14;2.57;118.99
65559;DHT22;52203;51.998;5.140;2023-03-20T02:16:40;2.51;118.99
65559;DHT22;52203;51.998;5.140;2023-03-20T02:19:13;2.49;118.99
65559;DHT22;52203;51.998;5.140;2023-03-20T02:30:35;2.41;118.99
65559;DHT22;52203;51.998;5.140;2023-03-20T02:38:47;2.37;118.99
65559;DHT22;52203;51.998;5.140;2023-03-20T02:44:07;2.32;118.99
65559;DHT22;52203;51.998;5.140;2023-03-20T02:47:09;2.27;118.99
65559;DHT22;52203;51.998;5.140;2023-03-20T02:52:49;2.20;118.99
65559;DHT22;52203;51.998;5.140;2023-03-20T02:55:35;2.17;118.99
65559;DHT22;52203;51.998;5.140;2023-03-20T02:58:22;2.17;118.99
65559;DHT22;52203;51.998;5.140;2023-03-20T03:00:59;2.14;118.99
65559;DHT22;52203;51.998;5.140;2023-03-20T03:04:00;2.03;118.99
65559;DHT22;52203;51.998;5.140;2023-03-20T03:06:29;2.02;118.99
65559;DHT22;52203;51.998;5.140;2023-03-20T03:09:02;2.01;118.99
65559;DHT22;52203;51.998;5.140;2023-03-20T03:11:38;1.98;118.99
65559;DHT22;52203;51.998;5.140;2023-03-20T03:14:07;1.96;118.99
65559;DHT22;52203;51.998;5.140;2023-03-20T03:16:37;1.97;118.99
65559;DHT22;52203;51.998;5.140;2023-03-20T03:19:07;1.97;118.99
65559;DHT22;52203;51.998;5.140;2023-03-20T03:21:39;1.96;118.99
65559;DHT22;52203;51.998;5.140;2023-03-20T03:24:06;1.95;118.99
65559;DHT22;52203;51.998;5.140;2023-03-20T03:26:43;1.98;118.99
65559;DHT22;52203;51.998;5.140;2023-03-20T03:29:14;1.96;118.99
65559;DHT22;52203;51.998;5.140;2023-03-20T03:31:42;1.95;118.99
65559;DHT22;52203;51.998;5.140;2023-03-20T03:34:12;1.93;118.99
65559;DHT22;52203;51.998;5.140;2023-03-20T03:37:17;1.90;118.99
65559;DHT22;52203;51.998;5.140;2023-03-20T03:40:00;1.83;118.99
65559;DHT22;52203;51.998;5.140;2023-03-20T03:42:43;1.83;118.99
65559;DHT22;52203;51.998;5.140;2023-03-20T03:45:32;1.84;118.99
65559;DHT22;52203;51.998;5.140;2023-03-20T03:48:09;1.84;118.99
65559;DHT22;52203;51.998;5.140;2023-03-20T03:50:51;1.85;118.99
65559;DHT22;52203;51.998;5.140;2023-03-20T03:53:24;1.86;118.99
65559;DHT22;52203;51.998;5.140;2023-03-20T03:55:57;1.84;118.99
65559;DHT22;52203;51.998;5.140;2023-03-20T03:58:31;1.87;118.99
65559;DHT22;52203;51.998;5.140;2023-03-20T04:00:58;1.88;118.99
65559;DHT22;52203;51.998;5.140;2023-03-20T04:03:34;1.91;118.99
65559;DHT22;52203;51.998;5.140;2023-03-20T04:06:02;1.88;118.99
65559;DHT22;52203;51.998;5.140;2023-03-20T04:08:29;1.91;118.99
65559;DHT22;52203;51.998;5.140;2023-03-20T04:10:54;1.91;118.99
65559;DHT22;52203;51.998;5.140;2023-03-20T04:13:20;1.92;118.99
65559;DHT22;52203;51.998;5.140;2023-03-20T04:15:45;1.93;118.99
65559;DHT22;52203;51.998;5.140;2023-03-20T04:18:34;1.94;118.99
65559;DHT22;52203;51.998;5.140;2023-03-20T04:21:00;1.93;118.99
65559;DHT22;52203;51.998;5.140;2023-03-20T04:23:26;1.93;118.99
65559;DHT22;52203;51.998;5.140;2023-03-20T04:25:51;1.94;118.99
65559;DHT22;52203;51.998;5.140;2023-03-20T04:28:17;1.95;118.99
65559;DHT22;52203;51.998;5.140;2023-03-20T04:30:43;1.94;118.99
65559;DHT22;52203;51.998;5.140;2023-03-20T04:33:12;1.96;118.99
65559;DHT22;52203;51.998;5.140;2023-03-20T04:35:38;1.96;118.99
65559;DHT22;52203;51.998;5.140;2023-03-20T04:38:03;1.96;118.99
65559;DHT22;52203;51.998;5.140;2023-03-20T04:40:29;2.01;118.99
65559;DHT22;52203;51.998;5.140;2023-03-20T04:42:55;2.05;118.99
65559;DHT22;52203;51.998;5.140;2023-03-20T04:45:21;2.03;118.99
65559;DHT22;52203;51.998;5.140;2023-03-20T04:47:46;2.05;118.99
65559;DHT22;52203;51.998;5.140;2023-03-20T04:50:12;2.09;118.99
65559;DHT22;52203;51.998;5.140;2023-03-20T04:52:38;2.07;118.99
65559;DHT22;52203;51.998;5.140;2023-03-20T04:55:04;2.09;118.99
65559;DHT22;52203;51.998;5.140;2023-03-20T04:57:29;2.05;118.99
65559;DHT22;52203;51.998;5.140;2023-03-20T04:59:56;2.03;118.99
65559;DHT22;52203;51.998;5.140;2023-03-20T05:02:21;2.01;118.99
65559;DHT22;52203;51.998;5.140;2023-03-20T05:04:47;1.98;118.99
65559;DHT22;52203;51.998;5.140;2023-03-20T05:07:13;1.99;118.99
65559;DHT22;52203;51.998;5.140;2023-03-20T05:09:38;1.99;118.99
65559;DHT22;52203;51.998;5.140;2023-03-20T05:12:04;1.98;118.99
65559;DHT22;52203;51.998;5.140;2023-03-20T05:14:30;2.05;118.99
65559;DHT22;52203;51.998;5.140;2023-03-20T05:16:56;2.00;118.99
65559;DHT22;52203;51.998;5.140;2023-03-20T05:19:21;2.01;118.99
65559;DHT22;52203;51.998;5.140;2023-03-20T05:21:47;2.01;118.99
65559;DHT22;52203;51.998;5.140;2023-03-20T05:24:12;1.99;118.99
65559;DHT22;52203;51.998;5.140;2023-03-20T05:26:38;1.98;118.99
65559;DHT22;52203;51.998;5.140;2023-03-20T05:29:04;2.00;118.99
65559;DHT22;52203;51.998;5.140;2023-03-20T05:31:29;1.98;118.99
65559;DHT22;52203;51.998;5.140;2023-03-20T05:33:55;1.95;118.99
65559;DHT22;52203;51.998;5.140;2023-03-20T05:36:21;1.94;118.99
65559;DHT22;52203;51.998;5.140;2023-03-20T05:38:47;1.98;118.99
65559;DHT22;52203;51.998;5.140;2023-03-20T05:41:12;1.97;118.99
65559;DHT22;52203;51.998;5.140;2023-03-20T05:43:38;1.97;118.99
65559;DHT22;52203;51.998;5.140;2023-03-20T05:46:04;1.99;118.99
65559;DHT22;52203;51.998;5.140;2023-03-20T05:48:29;2.06;118.99
65559;DHT22;52203;51.998;5.140;2023-03-20T05:50:55;2.07;118.99
65559;DHT22;52203;51.998;5.140;2023-03-20T05:53:21;2.08;118.99
65559;DHT22;52203;51.998;5.140;2023-03-20T05:55:46;2.13;118.99
65559;DHT22;52203;51.998;5.140;2023-03-20T05:58:12;2.14;118.99
65559;DHT22;52203;51.998;5.140;2023-03-20T06:00:38;2.15;118.99
65559;DHT22;52203;51.998;5.140;2023-03-20T06:03:04;2.14;118.99
65559;DHT22;52203;51.998;5.140;2023-03-20T06:05:32;2.13;118.99
65559;DHT22;52203;51.998;5.140;2023-03-20T06:07:57;2.14;118.99
65559;DHT22;52203;51.998;5.140;2023-03-20T06:10:23;2.17;118.99
65559;DHT22;52203;51.998;5.140;2023-03-20T06:12:48;2.12;118.99
65559;DHT22;52203;51.998;5.140;2023-03-20T06:15:14;2.11;118.99
65559;DHT22;52203;51.998;5.140;2023-03-20T06:17:40;2.13;118.99
65559;DHT22;52203;51.998;5.140;2023-03-20T06:20:06;2.14;118.99
65559;DHT22;52203;51.998;5.140;2023-03-20T06:22:32;2.15;118.99
65559;DHT22;52203;51.998;5.140;2023-03-20T06:24:58;2.16;118.99
65559;DHT22;52203;51.998;5.140;2023-03-20T06:27:23;2.21;118.99
65559;DHT22;52203;51.998;5.140;2023-03-20T06:29:49;2.19;118.99
65559;DHT22;52203;51.998;5.140;2023-03-20T06:32:16;2.25;118.99
65559;DHT22;52203;51.998;5.140;2023-03-20T06:34:42;2.23;118.99
65559;DHT22;52203;51.998;5.140;2023-03-20T06:37:07;2.26;118.99
65559;DHT22;52203;51.998;5.140;2023-03-20T06:39:33;2.23;118.99
65559;DHT22;52203;51.998;5.140;2023-03-20T06:41:58;2.23;118.99
65559;DHT22;52203;51.998;5.140;2023-03-20T06:44:24;2.22;118.99
65559;DHT22;52203;51.998;5.140;2023-03-20T06:46:51;2.26;118.99
65559;DHT22;52203;51.998;5.140;2023-03-20T06:49:17;2.27;118.99
65559;DHT22;52203;51.998;5.140;2023-03-20T06:51:43;2.26;118.99
65559;DHT22;52203;51.998;5.140;2023-03-20T06:54:09;2.29;118.99
65559;DHT22;52203;51.998;5.140;2023-03-20T06:56:35;2.30;118.99
65559;DHT22;52203;51.998;5.140;2023-03-20T06:59:01;2.32;118.99
65559;DHT22;52203;51.998;5.140;2023-03-20T07:01:26;2.36;118.99
65559;DHT22;52203;51.998;5.140;2023-03-20T07:03:52;2.38;118.99
65559;DHT22;52203;51.998;5.140;2023-03-20T07:06:18;2.42;118.99
65559;DHT22;52203;51.998;5.140;2023-03-20T07:08:44;2.45;118.99
65559;DHT22;52203;51.998;5.140;2023-03-20T07:11:09;2.50;118.99
65559;DHT22;52203;51.998;5.140;2023-03-20T07:13:35;2.49;118.99
65559;DHT22;52203;51.998;5.140;2023-03-20T07:16:02;2.52;118.99
65559;DHT22;52203;51.998;5.140;2023-03-20T07:18:28;2.52;118.99
65559;DHT22;52203;51.998;5.140;2023-03-20T07:20:58;2.55;118.99
65559;DHT22;52203;51.998;5.140;2023-03-20T07:23:24;2.59;118.99
65559;DHT22;52203;51.998;5.140;2023-03-20T07:25:49;2.60;118.99
65559;DHT22;52203;51.998;5.140;2023-03-20T07:28:16;2.67;118.99
65559;DHT22;52203;51.998;5.140;2023-03-20T07:30:42;2.60;118.99
65559;DHT22;52203;51.998;5.140;2023-03-20T07:33:07;2.62;118.99
65559;DHT22;52203;51.998;5.140;2023-03-20T07:35:33;2.67;118.99
65559;DHT22;52203;51.998;5.140;2023-03-20T07:37:59;2.70;118.99
65559;DHT22;52203;51.998;5.140;2023-03-20T07:40:24;2.72;118.99
65559;DHT22;52203;51.998;5.140;2023-03-20T07:42:50;2.74;118.99
65559;DHT22;52203;51.998;5.140;2023-03-20T07:45:16;2.83;118.99
65559;DHT22;52203;51.998;5.140;2023-03-20T07:47:46;2.83;118.99
65559;DHT22;52203;51.998;5.140;2023-03-20T07:50:13;2.91;118.99
65559;DHT22;52203;51.998;5.140;2023-03-20T07:52:38;2.96;118.99
65559;DHT22;52203;51.998;5.140;2023-03-20T07:55:04;2.96;118.99
65559;DHT22;52203;51.998;5.140;2023-03-20T07:57:30;2.98;118.99
65559;DHT22;52203;51.998;5.140;2023-03-20T07:59:56;2.99;118.99
65559;DHT22;52203;51.998;5.140;2023-03-20T08:02:21;3.00;118.99
65559;DHT22;52203;51.998;5.140;2023-03-20T08:04:47;3.03;118.99
65559;DHT22;52203;51.998;5.140;2023-03-20T08:07:12;3.10;118.99
65559;DHT22;52203;51.998;5.140;2023-03-20T08:09:38;3.16;118.99
65559;DHT22;52203;51.998;5.140;2023-03-20T08:12:04;3.20;118.99
65559;DHT22;52203;51.998;5.140;2023-03-20T08:14:30;3.23;118.99
65559;DHT22;52203;51.998;5.140;2023-03-20T08:16:56;3.29;118.99
65559;DHT22;52203;51.998;5.140;2023-03-20T08:19:21;3.43;118.99
65559;DHT22;52203;51.998;5.140;2023-03-20T08:21:48;3.43;118.99
65559;DHT22;52203;51.998;5.140;2023-03-20T08:24:14;3.40;118.99
65559;DHT22;52203;51.998;5.140;2023-03-20T08:26:40;3.52;118.99
65559;DHT22;52203;51.998;5.140;2023-03-20T08:29:05;3.56;118.99
65559;DHT22;52203;51.998;5.140;2023-03-20T08:31:31;3.57;118.99
65559;DHT22;52203;51.998;5.140;2023-03-20T08:33:57;3.61;118.99
65559;DHT22;52203;51.998;5.140;2023-03-20T08:36:23;3.59;118.99
65559;DHT22;52203;51.998;5.140;2023-03-20T08:38:49;3.59;118.99
65559;DHT22;52203;51.998;5.140;2023-03-20T08:41:16;3.57;118.99
65559;DHT22;52203;51.998;5.140;2023-03-20T08:43:41;3.55;118.99
65559;DHT22;52203;51.998;5.140;2023-03-20T08:46:08;3.55;118.99
65559;DHT22;52203;51.998;5.140;2023-03-20T08:48:34;3.54;118.99
65559;DHT22;52203;51.998;5.140;2023-03-20T08:51:00;3.54;118.99
65559;DHT22;52203;51.998;5.140;2023-03-20T08:53:26;3.48;118.99
65559;DHT22;52203;51.998;5.140;2023-03-20T08:55:52;3.52;118.99
65559;DHT22;52203;51.998;5.140;2023-03-20T08:58:19;3.53;118.99
65559;DHT22;52203;51.998;5.140;2023-03-20T09:00:45;3.54;118.99
65559;DHT22;52203;51.998;5.140;2023-03-20T09:03:16;3.54;118.99
65559;DHT22;52203;51.998;5.140;2023-03-20T09:13:04;3.47;118.99
65559;DHT22;52203;51.998;5.140;2023-03-20T09:16:12;3.55;118.99
65559;DHT22;52203;51.998;5.140;2023-03-20T09:18:37;3.60;118.99
65559;DHT22;52203;51.998;5.140;2023-03-20T09:52:50;4.20;118.99
65559;DHT22;52203;51.998;5.140;2023-03-20T10:57:11;4.72;118.99
65559;DHT22;52203;51.998;5.140;2023-03-20T10:59:38;4.60;118.99
65559;DHT22;52203;51.998;5.140;2023-03-20T11:02:10;4.67;118.99
65559;DHT22;52203;51.998;5.140;2023-03-20T11:04:36;4.72;118.99
65559;DHT22;52203;51.998;5.140;2023-03-20T11:07:04;4.68;118.99
65559;DHT22;52203;51.998;5.140;2023-03-20T11:09:31;4.69;118.99
65559;DHT22;52203;51.998;5.140;2023-03-20T11:12:00;4.82;118.99
65559;DHT22;52203;51.998;5.140;2023-03-20T11:14:35;4.73;118.99
65559;DHT22;52203;51.998;5.140;2023-03-20T11:17:02;4.74;118.99
65559;DHT22;52203;51.998;5.140;2023-03-20T11:19:35;4.65;118.99
65559;DHT22;52203;51.998;5.140;2023-03-20T11:24:48;4.81;118.99
65559;DHT22;52203;51.998;5.140;2023-03-20T11:27:24;4.83;118.99
65559;DHT22;52203;51.998;5.140;2023-03-20T11:29:50;4.88;118.99
65559;DHT22;52203;51.998;5.140;2023-03-20T11:32:27;4.91;118.99
65559;DHT22;52203;51.998;5.140;2023-03-20T11:34:54;4.93;118.99
65559;DHT22;52203;51.998;5.140;2023-03-20T11:37:32;5.04;118.99
65559;DHT22;52203;51.998;5.140;2023-03-20T11:46:03;5.19;118.99
65559;DHT22;52203;51.998;5.140;2023-03-20T11:48:39;5.19;118.99
65559;DHT22;52203;51.998;5.140;2023-03-20T11:51:19;5.18;118.99
65559;DHT22;52203;51.998;5.140;2023-03-20T11:56:22;5.28;118.99
65559;DHT22;52203;51.998;5.140;2023-03-20T12:01:13;5.20;118.99
65559;DHT22;52203;51.998;5.140;2023-03-20T12:03:42;5.32;118.99
65559;DHT22;52203;51.998;5.140;2023-03-20T12:06:21;5.36;118.99
65559;DHT22;52203;51.998;5.140;2023-03-20T12:09:04;5.36;118.99
65559;DHT22;52203;51.998;5.140;2023-03-20T12:14:11;5.38;118.99
65559;DHT22;52203;51.998;5.140;2023-03-20T12:16:40;5.40;118.99
65559;DHT22;52203;51.998;5.140;2023-03-20T12:19:13;5.35;118.99
65559;DHT22;52203;51.998;5.140;2023-03-20T12:21:54;5.40;118.99
65559;DHT22;52203;51.998;5.140;2023-03-20T12:27:35;5.19;118.99
65559;DHT22;52203;51.998;5.140;2023-03-20T12:30:25;5.13;118.99
65559;DHT22;52203;51.998;5.140;2023-03-20T12:33:19;5.11;118.99
65559;DHT22;52203;51.998;5.140;2023-03-20T12:35:48;5.10;118.99
65559;DHT22;52203;51.998;5.140;2023-03-20T12:38:23;5.09;118.99
65559;DHT22;52203;51.998;5.140;2023-03-20T12:40:54;5.07;118.99
65559;DHT22;52203;51.998;5.140;2023-03-20T12:43:25;5.07;118.99
65559;DHT22;52203;51.998;5.140;2023-03-20T12:48:48;5.00;118.99
65559;DHT22;52203;51.998;5.140;2023-03-20T12:57:10;4.90;118.99
65559;DHT22;52203;51.998;5.140;2023-03-20T12:59:55;4.89;118.99
65559;DHT22;52203;51.998;5.140;2023-03-20T13:05:19;4.80;118.99
65559;DHT22;52203;51.998;5.140;2023-03-20T13:08:12;4.78;118.99
65559;DHT22;52203;51.998;5.140;2023-03-20T13:21:16;4.71;118.99
65559;DHT22;52203;51.998;5.140;2023-03-20T13:26:32;4.73;118.99
65559;DHT22;52203;51.998;5.140;2023-03-20T13:32:37;4.66;118.99
65559;DHT22;52203;51.998;5.140;2023-03-20T13:37:53;4.60;118.99
65559;DHT22;52203;51.998;5.140;2023-03-20T13:40:22;4.58;118.99
65559;DHT22;52203;51.998;5.140;2023-03-20T13:45:41;4.44;118.99
65559;DHT22;52203;51.998;5.140;2023-03-20T13:51:12;4.41;118.99
65559;DHT22;52203;51.998;5.140;2023-03-20T14:04:37;4.27;118.99
65559;DHT22;52203;51.998;5.140;2023-03-20T14:07:31;4.26;118.99
65559;DHT22;52203;51.998;5.140;2023-03-20T14:13:02;4.23;118.99
65559;DHT22;52203;51.998;5.140;2023-03-20T14:15:33;4.24;118.99
65559;DHT22;52203;51.998;5.140;2023-03-20T14:18:15;4.24;118.99
65559;DHT22;52203;51.998;5.140;2023-03-20T14:20:42;4.29;118.99
65559;DHT22;52203;51.998;5.140;2023-03-20T14:23:20;4.33;118.99
65559;DHT22;52203;51.998;5.140;2023-03-20T14:25:53;4.32;118.99
65559;DHT22;52203;51.998;5.140;2023-03-20T14:30:49;4.34;118.99
65559;DHT22;52203;51.998;5.140;2023-03-20T14:35:47;4.34;118.99
65559;DHT22;52203;51.998;5.140;2023-03-20T14:38:32;4.34;118.99
65559;DHT22;52203;51.998;5.140;2023-03-20T14:41:21;4.26;118.99
65559;DHT22;52203;51.998;5.140;2023-03-20T14:52:19;4.20;118.99
65559;DHT22;52203;51.998;5.140;2023-03-20T14:54:52;4.18;118.99
65559;DHT22;52203;51.998;5.140;2023-03-20T14:57:34;4.19;118.99
65559;DHT22;52203;51.998;5.140;2023-03-20T15:00:02;4.22;118.99
65559;DHT22;52203;51.998;5.140;2023-03-20T15:02:34;4.24;118.99
65559;DHT22;52203;51.998;5.140;2023-03-20T15:05:01;4.26;118.99
65559;DHT22;52203;51.998;5.140;2023-03-20T15:07:29;4.23;118.99
65559;DHT22;52203;51.998;5.140;2023-03-20T15:09:59;4.23;118.99
65559;DHT22;52203;51.998;5.140;2023-03-20T15:12:30;4.24;118.99
65559;DHT22;52203;51.998;5.140;2023-03-20T15:15:06;4.28;118.99
65559;DHT22;52203;51.998;5.140;2023-03-20T15:17:39;4.24;118.99
65559;DHT22;52203;51.998;5.140;2023-03-20T15:20:14;4.26;118.99
65559;DHT22;52203;51.998;5.140;2023-03-20T15:22:55;4.29;118.99
65559;DHT22;52203;51.998;5.140;2023-03-20T15:25:23;4.24;118.99
65559;DHT22;52203;51.998;5.140;2023-03-20T15:27:50;4.30;118.99
65559;DHT22;52203;51.998;5.140;2023-03-20T15:30:18;4.30;118.99
65559;DHT22;52203;51.998;5.140;2023-03-20T15:32:49;4.35;118.99
65559;DHT22;52203;51.998;5.140;2023-03-20T15:35:19;4.38;118.99
65559;DHT22;52203;51.998;5.140;2023-03-20T15:37:47;4.37;118.99
65559;DHT22;52203;51.998;5.140;2023-03-20T15:42:59;4.44;118.99
65559;DHT22;52203;51.998;5.140;2023-03-20T15:45:31;4.37;118.99
65559;DHT22;52203;51.998;5.140;2023-03-20T15:48:04;4.41;118.99
65559;DHT22;52203;51.998;5.140;2023-03-20T15:50:36;4.44;118.99
65559;DHT22;52203;51.998;5.140;2023-03-20T15:53:03;4.52;118.99
65559;DHT22;52203;51.998;5.140;2023-03-20T15:55:29;4.54;118.99
65559;DHT22;52203;51.998;5.140;2023-03-20T15:57:59;4.54;118.99
65559;DHT22;52203;51.998;5.140;2023-03-20T16:00:33;4.53;118.99
65559;DHT22;52203;51.998;5.140;2023-03-20T16:03:03;4.52;118.99
65559;DHT22;52203;51.998;5.140;2023-03-20T16:05:30;4.59;118.99
65559;DHT22;52203;51.998;5.140;2023-03-20T16:07:56;4.60;118.99
65559;DHT22;52203;51.998;5.140;2023-03-20T16:10:35;4.63;118.99
65559;DHT22;52203;51.998;5.140;2023-03-20T16:13:03;4.60;118.99
65559;DHT22;52203;51.998;5.140;2023-03-20T16:15:30;4.65;118.99
65559;DHT22;52203;51.998;5.140;2023-03-20T16:17:59;4.66;118.99
65559;DHT22;52203;51.998;5.140;2023-03-20T16:20:29;4.67;118.99
65559;DHT22;52203;51.998;5.140;2023-03-20T16:23:00;4.67;118.99
65559;DHT22;52203;51.998;5.140;2023-03-20T16:25:27;4.68;118.99
65559;DHT22;52203;51.998;5.140;2023-03-20T16:27:53;4.68;118.99
65559;DHT22;52203;51.998;5.140;2023-03-20T16:30:29;4.67;118.99
65559;DHT22;52203;51.998;5.140;2023-03-20T16:33:01;4.64;118.99
65559;DHT22;52203;51.998;5.140;2023-03-20T16:35:38;4.64;118.99
65559;DHT22;52203;51.998;5.140;2023-03-20T16:38:22;4.63;118.99
65559;DHT22;52203;51.998;5.140;2023-03-20T16:40:52;4.65;118.99
65559;DHT22;52203;51.998;5.140;2023-03-20T16:43:22;4.62;118.99
65559;DHT22;52203;51.998;5.140;2023-03-20T16:45:54;4.62;118.99
65559;DHT22;52203;51.998;5.140;2023-03-20T16:48:25;4.64;118.99
65559;DHT22;52203;51.998;5.140;2023-03-20T16:51:04;4.63;118.99
65559;DHT22;52203;51.998;5.140;2023-03-20T16:53:39;4.65;118.99
65559;DHT22;52203;51.998;5.140;2023-03-20T16:56:15;4.72;118.99
65559;DHT22;52203;51.998;5.140;2023-03-20T16:58:43;4.69;118.99
65559;DHT22;52203;51.998;5.140;2023-03-20T17:01:21;4.71;118.99
65559;DHT22;52203;51.998;5.140;2023-03-20T17:08:54;4.73;118.99
65559;DHT22;52203;51.998;5.140;2023-03-20T17:11:28;4.76;118.99
65559;DHT22;52203;51.998;5.140;2023-03-20T17:13:54;4.73;118.99
65559;DHT22;52203;51.998;5.140;2023-03-20T17:16:20;4.73;118.99
65559;DHT22;52203;51.998;5.140;2023-03-20T17:18:57;4.76;118.99
65559;DHT22;52203;51.998;5.140;2023-03-20T17:21:22;4.77;118.99
65559;DHT22;52203;51.998;5.140;2023-03-20T17:23:48;4.76;118.99
65559;DHT22;52203;51.998;5.140;2023-03-20T17:26:14;4.77;118.99
65559;DHT22;52203;51.998;5.140;2023-03-20T17:28:40;4.79;118.99
65559;DHT22;52203;51.998;5.140;2023-03-20T17:31:14;4.80;118.99
65559;DHT22;52203;51.998;5.140;2023-03-20T17:33:41;4.79;118.99
65559;DHT22;52203;51.998;5.140;2023-03-20T17:36:15;4.77;118.99
65559;DHT22;52203;51.998;5.140;2023-03-20T17:38:41;4.82;118.99
65559;DHT22;52203;51.998;5.140;2023-03-20T17:41:12;4.83;118.99
65559;DHT22;52203;51.998;5.140;2023-03-20T17:43:38;4.84;118.99
65559;DHT22;52203;51.998;5.140;2023-03-20T17:46:04;4.83;118.99
65559;DHT22;52203;51.998;5.140;2023-03-20T17:48:30;4.83;118.99
65559;DHT22;52203;51.998;5.140;2023-03-20T17:50:55;4.84;118.99
65559;DHT22;52203;51.998;5.140;2023-03-20T17:53:23;4.84;118.99
65559;DHT22;52203;51.998;5.140;2023-03-20T17:55:52;4.83;118.99
65559;DHT22;52203;51.998;5.140;2023-03-20T17:58:21;4.90;118.99
65559;DHT22;52203;51.998;5.140;2023-03-20T18:00:51;4.87;118.99
65559;DHT22;52203;51.998;5.140;2023-03-20T18:03:17;4.87;118.99
65559;DHT22;52203;51.998;5.140;2023-03-20T18:05:44;4.86;118.99
65559;DHT22;52203;51.998;5.140;2023-03-20T18:08:20;4.88;118.99
65559;DHT22;52203;51.998;5.140;2023-03-20T18:10:51;4.89;118.99
65559;DHT22;52203;51.998;5.140;2023-03-20T18:13:17;4.87;118.99
65559;DHT22;52203;51.998;5.140;2023-03-20T18:15:46;4.89;118.99
65559;DHT22;52203;51.998;5.140;2023-03-20T18:18:12;4.89;118.99
65559;DHT22;52203;51.998;5.140;2023-03-20T18:20:39;4.93;118.99
65559;DHT22;52203;51.998;5.140;2023-03-20T18:23:08;4.95;118.99
65559;DHT22;52203;51.998;5.140;2023-03-20T18:25:34;4.93;118.99
65559;DHT22;52203;51.998;5.140;2023-03-20T18:28:02;4.97;118.99
65559;DHT22;52203;51.998;5.140;2023-03-20T18:30:33;5.00;118.99
65559;DHT22;52203;51.998;5.140;2023-03-20T18:32:59;5.02;118.99
65559;DHT22;52203;51.998;5.140;2023-03-20T18:35:26;5.02;118.99
65559;DHT22;52203;51.998;5.140;2023-03-20T18:37:52;5.01;118.99
65559;DHT22;52203;51.998;5.140;2023-03-20T18:40:29;5.00;118.99
65559;DHT22;52203;51.998;5.140;2023-03-20T18:42:56;5.01;118.99
65559;DHT22;52203;51.998;5.140;2023-03-20T18:45:22;5.01;118.99
65559;DHT22;52203;51.998;5.140;2023-03-20T18:47:48;5.03;118.99
65559;DHT22;52203;51.998;5.140;2023-03-20T18:52:55;5.07;118.99
65559;DHT22;52203;51.998;5.140;2023-03-20T18:55:22;5.10;118.99
65559;DHT22;52203;51.998;5.140;2023-03-20T18:57:49;5.05;118.99
65559;DHT22;52203;51.998;5.140;2023-03-20T19:00:24;5.08;118.99
65559;DHT22;52203;51.998;5.140;2023-03-20T19:02:52;5.11;118.99
65559;DHT22;52203;51.998;5.140;2023-03-20T19:05:20;5.12;118.99
65559;DHT22;52203;51.998;5.140;2023-03-20T19:07:46;5.09;118.99
65559;DHT22;52203;51.998;5.140;2023-03-20T19:10:29;5.13;118.99
65559;DHT22;52203;51.998;5.140;2023-03-20T19:12:57;5.13;118.99
65559;DHT22;52203;51.998;5.140;2023-03-20T19:15:27;5.18;118.99
65559;DHT22;52203;51.998;5.140;2023-03-20T19:17:53;5.18;118.99
65559;DHT22;52203;51.998;5.140;2023-03-20T19:22:54;5.21;118.99
65559;DHT22;52203;51.998;5.140;2023-03-20T19:25:20;5.19;118.99
65559;DHT22;52203;51.998;5.140;2023-03-20T19:27:47;5.22;118.99
65559;DHT22;52203;51.998;5.140;2023-03-20T19:32:47;5.24;118.99
65559;DHT22;52203;51.998;5.140;2023-03-20T19:35:13;5.24;118.99
65559;DHT22;52203;51.998;5.140;2023-03-20T19:37:39;5.24;118.99